Pegasus Prime — DSQG5 — position and weather

sailwx.info

Track history (hours):
 
Tides and Currents Weather Stations Pressure Air Temp Water Temp Dewpoint Dewpoint Depression Visibility Wind Speed Wind Dir Waves Ship Positions

Pegasus Prime

Last reported at 2018-Jun-23 19:51 UTC. Time now 2018-Jun-24 14:21 UTC.
Position N 35°03' E 129°09'.

Length 127 m; draft 7.6 m.

Type: Cargo ship. MMSI: 441568000.

Date/timePositionNaut miles runAvg speedWind from/ knotsBaromVisibWave heightAir tempDewpointWater temp
2018-Jun-23 19:51N 35°03' E 129°09'412.3
2018-Jun-23 19:30N 35°05' E 129°06'1 0.7
2018-Jun-23 18:10N 35°06' E 129°06'0 0.0
2018-Jun-23 17:22N 35°06' E 129°06'0 0.0
2018-Jun-23 16:43N 35°06' E 129°06'0 0.0
2018-Jun-23 16:28N 35°06' E 129°06'0 0.0
2018-Jun-23 15:49N 35°06' E 129°06'0 0.0
2018-Jun-23 15:28N 35°06' E 129°06'0 0.0
2018-Jun-23 14:58N 35°06' E 129°06'0 0.0
2018-Jun-23 14:28N 35°06' E 129°06'0 0.0
2018-Jun-23 13:58N 35°06' E 129°06'0 0.0
2018-Jun-23 13:28N 35°06' E 129°06'0 0.0
2018-Jun-23 12:52N 35°06' E 129°06'0 0.0
2018-Jun-23 12:28N 35°06' E 129°06'0 0.0
2018-Jun-23 11:58N 35°06' E 129°06'0 0.0
2018-Jun-23 11:16N 35°06' E 129°06'0 0.0
2018-Jun-23 10:58N 35°06' E 129°06'0 0.0
2018-Jun-23 10:28N 35°06' E 129°06'0 0.0
2018-Jun-23 09:58N 35°06' E 129°06'0 0.0
2018-Jun-23 09:22N 35°06' E 129°06'0 0.0
2018-Jun-23 08:49N 35°06' E 129°06'0 0.0
2018-Jun-23 08:19N 35°06' E 129°06'0 0.0
2018-Jun-23 07:58N 35°06' E 129°06'0 0.0
2018-Jun-23 07:22N 35°06' E 129°06'0 0.0
2018-Jun-23 03:37N 35°06' E 129°06'0 2.2
2018-Jun-23 03:30N 35°06' E 129°06'255 6.1
2018-Jun-21 09:52N 34°25' E 134°12'513.4
2018-Jun-21 09:29N 34°25' E 134°18'714.2
2018-Jun-21 09:00N 34°26' E 134°26'714.6
2018-Jun-21 08:30N 34°29' E 134°34'714.6
2018-Jun-21 08:00N 34°32' E 134°42'815.3
2018-Jun-21 07:30N 34°35' E 134°51'815.6
2018-Jun-21 07:00N 34°38' E 134°60'714.6
2018-Jun-21 06:30N 34°36' E 135°08'713.8
2018-Jun-21 06:00N 34°38' E 135°16'2 3.2
2018-Jun-21 05:19N 34°40' E 135°14'0 0.0
2018-Jun-21 04:49N 34°40' E 135°14'0 0.0
2018-Jun-21 04:28N 34°40' E 135°14'0 0.0
2018-Jun-21 03:58N 34°40' E 135°14'0 0.0
2018-Jun-21 03:25N 34°40' E 135°14'0 0.0
2018-Jun-21 02:58N 34°40' E 135°14'0 0.0
2018-Jun-21 02:28N 34°40' E 135°14'0 0.0
2018-Jun-21 01:55N 34°40' E 135°14'0 0.0
2018-Jun-21 01:25N 34°40' E 135°14'0 0.0
2018-Jun-21 00:52N 34°40' E 135°14'0 0.0
2018-Jun-21 00:28N 34°40' E 135°14'0 0.0
2018-Jun-20 23:58N 34°40' E 135°14'0 0.0
2018-Jun-20 23:28N 34°40' E 135°14'0 0.0
2018-Jun-20 22:55N 34°40' E 135°14'0 0.1
2018-Jun-20 22:30N 34°40' E 135°14'2 4.5
2018-Jun-20 22:00N 34°39' E 135°16'612.0
2018-Jun-20 21:30N 34°38' E 135°24'2 1.2
2018-Jun-20 19:31N 34°38' E 135°26'0 0.0
2018-Jun-20 19:13N 34°38' E 135°26'0 0.0
2018-Jun-20 15:19N 34°38' E 135°26'0 0.0
2018-Jun-20 14:55N 34°38' E 135°26'0 0.0
2018-Jun-20 14:25N 34°38' E 135°26'0 0.0
2018-Jun-20 13:55N 34°38' E 135°26'0 0.0
2018-Jun-20 13:25N 34°38' E 135°26'0 0.0
2018-Jun-20 12:19N 34°38' E 135°26'0 0.0
2018-Jun-20 11:31N 34°38' E 135°26'0 0.0
2018-Jun-20 10:25N 34°38' E 135°26'0 0.0
2018-Jun-20 09:43N 34°38' E 135°26'0 0.0
2018-Jun-20 09:25N 34°38' E 135°26'0 0.0
2018-Jun-20 08:55N 34°38' E 135°26'0 0.0
2018-Jun-20 08:25N 34°38' E 135°26'0 0.0
2018-Jun-20 07:43N 34°38' E 135°26'0 0.0
2018-Jun-20 07:13N 34°38' E 135°26'0 0.0
2018-Jun-20 06:55N 34°38' E 135°26'0 0.0
2018-Jun-20 06:27N 34°38' E 135°26'1 1.2
2018-Jun-20 06:00N 34°39' E 135°26'4 7.6
2018-Jun-20 05:31N 34°37' E 135°22'510.1
2018-Jun-20 05:01N 34°35' E 135°16'510.8
2018-Jun-20 04:30N 34°35' E 135°10'612.5
2018-Jun-20 04:00N 34°36' E 135°02'611.7
2018-Jun-20 03:30N 34°35' E 134°55'612.6
2018-Jun-20 03:00N 34°33' E 134°48'713.2
2018-Jun-20 02:30N 34°30' E 134°41'713.2
2018-Jun-20 02:00N 34°28' E 134°33'713.6
2018-Jun-20 01:29N 34°25' E 134°25'713.8
2018-Jun-20 01:00N 34°23' E 134°18'255 9.5
2018-Jun-18 22:16N 35°02' E 129°11'413.2
2018-Jun-18 21:59N 35°04' E 129°07'2 5.1
2018-Jun-18 21:30N 35°06' E 129°06'0 0.0
2018-Jun-18 21:00N 35°06' E 129°06'0 0.0
2018-Jun-18 20:30N 35°06' E 129°06'0 0.0
2018-Jun-18 19:54N 35°06' E 129°06'0 0.0
2018-Jun-18 19:30N 35°06' E 129°06'0 0.0
2018-Jun-18 19:00N 35°06' E 129°06'0 0.0
2018-Jun-18 18:30N 35°06' E 129°06'0 0.0
2018-Jun-18 17:51N 35°06' E 129°06'0 0.0
2018-Jun-18 17:30N 35°06' E 129°06'0 0.0
2018-Jun-18 17:00N 35°06' E 129°06'0 0.0
2018-Jun-18 16:30N 35°06' E 129°06'0 0.0
2018-Jun-18 15:57N 35°06' E 129°06'0 0.0
2018-Jun-18 15:30N 35°06' E 129°06'0 0.0
2018-Jun-18 14:57N 35°06' E 129°06'0 0.0
2018-Jun-18 14:30N 35°06' E 129°06'0 0.0
2018-Jun-18 13:57N 35°06' E 129°06'0 0.0
2018-Jun-18 13:30N 35°06' E 129°06'0 0.0
2018-Jun-18 13:00N 35°06' E 129°06'0 0.0
2018-Jun-18 12:30N 35°06' E 129°06'0 0.0
2018-Jun-18 11:57N 35°06' E 129°06'0 0.0
2018-Jun-18 11:24N 35°06' E 129°06'0 0.0
2018-Jun-18 10:54N 35°06' E 129°06'0 0.0
2018-Jun-18 10:30N 35°06' E 129°06'0 0.0
2018-Jun-18 09:00N 35°06' E 129°06'0 0.0
2018-Jun-18 08:12N 35°06' E 129°06'0 0.0
2018-Jun-18 07:54N 35°06' E 129°06'0 0.0
2018-Jun-18 07:30N 35°06' E 129°06'0 0.0
2018-Jun-18 07:00N 35°06' E 129°06'0 0.0
2018-Jun-18 06:12N 35°06' E 129°06'0 0.0
2018-Jun-18 06:00N 35°06' E 129°06'0 0.0
2018-Jun-18 05:24N 35°06' E 129°06'0 0.0
2018-Jun-18 04:57N 35°06' E 129°06'0 0.0
2018-Jun-18 04:30N 35°06' E 129°06'1 1.4
2018-Jun-18 04:01N 35°05' E 129°06'4 3.0
2018-Jun-18 02:39N 35°02' E 129°02'0 0.0
2018-Jun-18 02:23N 35°02' E 129°02'0 0.1
2018-Jun-18 01:59N 35°02' E 129°02'0 0.0
2018-Jun-18 01:26N 35°02' E 129°02'0 0.0
2018-Jun-17 22:41N 35°03' E 129°02'0 0.3
2018-Jun-17 22:30N 35°03' E 129°02'0 0.0
2018-Jun-17 22:00N 35°03' E 129°02'0 0.1
2018-Jun-17 21:29N 35°02' E 129°02'0 0.1
2018-Jun-17 21:00N 35°03' E 129°02'0 0.1
2018-Jun-17 20:23N 35°03' E 129°03'0 0.0
2018-Jun-17 19:59N 35°03' E 129°03'0 0.0
2018-Jun-17 19:30N 35°03' E 129°03'0 0.0
2018-Jun-17 19:00N 35°02' E 129°03'0 0.0
2018-Jun-17 18:25N 35°02' E 129°03'0 0.0
2018-Jun-17 17:51N 35°02' E 129°03'0 0.0
2018-Jun-17 17:30N 35°02' E 129°03'0 0.1
2018-Jun-17 16:58N 35°02' E 129°02'0 0.1
2018-Jun-17 16:30N 35°03' E 129°02'0 0.0
2018-Jun-17 16:00N 35°03' E 129°02'0 0.0
2018-Jun-17 15:30N 35°03' E 129°02'0 0.1
2018-Jun-17 14:56N 35°03' E 129°02'0 0.0
2018-Jun-17 14:22N 35°03' E 129°02'0 0.1
2018-Jun-17 13:52N 35°02' E 129°02'0 0.0
2018-Jun-17 13:30N 35°03' E 129°02'0 0.0
2018-Jun-17 13:00N 35°03' E 129°02'0 0.2
2018-Jun-17 12:18N 35°02' E 129°02'0 0.0
2018-Jun-17 10:05N 35°02' E 129°02'0 0.0
2018-Jun-17 08:41N 35°02' E 129°02'0 0.1
2018-Jun-17 07:31N 35°02' E 129°02'0 0.0
2018-Jun-17 07:30N 35°02' E 129°02'0 0.0
2018-Jun-17 07:00N 35°03' E 129°02'0 0.1
2018-Jun-17 06:29N 35°03' E 129°02'0 0.1
2018-Jun-17 05:58N 35°02' E 129°02'0 0.0
2018-Jun-17 05:16N 35°02' E 129°02'0 0.0
2018-Jun-17 04:27N 35°02' E 129°02'0 0.1
2018-Jun-17 03:53N 35°02' E 129°02'0 0.0
2018-Jun-17 02:45N 35°02' E 129°02'0 0.0
2018-Jun-17 02:28N 35°02' E 129°02'0 0.1
2018-Jun-17 01:53N 35°02' E 129°02'0 0.0
2018-Jun-17 01:29N 35°02' E 129°02'0 0.0
2018-Jun-17 00:54N 35°02' E 129°02'0 0.0
2018-Jun-17 00:29N 35°02' E 129°02'0 0.0
2018-Jun-16 23:57N 35°02' E 129°02'0 0.0
2018-Jun-16 23:30N 35°02' E 129°02'0 0.0
2018-Jun-16 23:00N 35°02' E 129°02'0 0.0
2018-Jun-16 22:30N 35°02' E 129°02'0 0.0
2018-Jun-16 22:00N 35°02' E 129°02'0 0.0
2018-Jun-16 21:30N 35°02' E 129°02'0 0.0
2018-Jun-16 20:58N 35°02' E 129°02'0 0.1
2018-Jun-16 20:29N 35°02' E 129°02'0 0.1
2018-Jun-16 19:58N 35°02' E 129°02'0 0.0
2018-Jun-16 19:30N 35°02' E 129°02'0 0.0
2018-Jun-16 19:00N 35°02' E 129°02'0 0.0
2018-Jun-16 18:30N 35°02' E 129°02'0 0.0
2018-Jun-16 18:00N 35°02' E 129°02'0 0.0
2018-Jun-16 17:30N 35°02' E 129°02'25611.3
2018-Jun-15 18:57N 34°26' E 134°10'612.5
2018-Jun-15 18:28N 34°24' E 134°17'713.9
2018-Jun-15 17:59N 34°26' E 134°25'714.6
2018-Jun-15 17:31N 34°29' E 134°33'714.5
2018-Jun-15 17:00N 34°31' E 134°41'715.1
2018-Jun-15 16:31N 34°34' E 134°50'714.7
2018-Jun-15 16:00N 34°37' E 134°58'713.8
2018-Jun-15 15:31N 34°36' E 135°06'714.5
2018-Jun-15 15:01N 34°37' E 135°15'3 5.2
2018-Jun-15 14:31N 34°40' E 135°14'0 0.2
2018-Jun-15 13:58N 34°40' E 135°14'0 0.0
2018-Jun-15 13:25N 34°40' E 135°14'0 0.0
2018-Jun-15 12:58N 34°40' E 135°14'0 0.0
2018-Jun-15 12:25N 34°40' E 135°14'0 0.0
2018-Jun-15 11:55N 34°40' E 135°14'0 0.0
2018-Jun-15 11:28N 34°40' E 135°14'0 0.0
2018-Jun-15 10:55N 34°40' E 135°14'0 0.0
2018-Jun-15 10:25N 34°40' E 135°14'0 0.0
2018-Jun-15 09:55N 34°40' E 135°14'0 0.0
2018-Jun-15 09:25N 34°40' E 135°14'0 0.0
2018-Jun-15 08:58N 34°40' E 135°14'0 0.0
2018-Jun-15 08:25N 34°40' E 135°14'0 0.0
2018-Jun-15 07:49N 34°40' E 135°14'0 0.0
2018-Jun-15 07:25N 34°40' E 135°14'0 0.0
2018-Jun-15 06:55N 34°40' E 135°14'0 0.0
2018-Jun-15 06:25N 34°40' E 135°14'0 0.1
2018-Jun-15 06:00N 34°40' E 135°14'3 5.8
2018-Jun-15 05:30N 34°38' E 135°17'713.1
2018-Jun-15 05:00N 34°39' E 135°25'1 2.6
2018-Jun-15 04:30N 34°38' E 135°26'0 0.0
2018-Jun-15 03:42N 34°38' E 135°26'0 0.0
2018-Jun-15 03:30N 34°38' E 135°26'0 0.0
2018-Jun-15 03:00N 34°38' E 135°26'0 0.0
2018-Jun-15 02:30N 34°38' E 135°26'0 0.0
2018-Jun-15 02:00N 34°38' E 135°26'0 0.0
2018-Jun-15 01:30N 34°38' E 135°26'0 0.0
2018-Jun-15 00:48N 34°38' E 135°26'0 0.0
2018-Jun-15 00:30N 34°38' E 135°26'0 0.0
2018-Jun-15 00:00N 34°38' E 135°26'0 0.0
2018-Jun-14 23:30N 34°38' E 135°26'0 0.0
2018-Jun-14 23:00N 34°38' E 135°26'0 0.0
2018-Jun-14 22:30N 34°38' E 135°26'2 4.3
2018-Jun-14 22:00N 34°38' E 135°24'2 4.5
2018-Jun-14 21:30N 34°37' E 135°22'0 0.0
2018-Jun-14 21:00N 34°37' E 135°22'0 0.0
2018-Jun-14 20:30N 34°37' E 135°22'0 0.0
2018-Jun-14 20:00N 34°37' E 135°22'0 0.0
2018-Jun-14 19:29N 34°37' E 135°22'0 0.0
2018-Jun-14 19:00N 34°37' E 135°22'0 0.0
2018-Jun-14 18:30N 34°37' E 135°22'0 0.1
2018-Jun-14 18:00N 34°37' E 135°22'1 1.4
2018-Jun-14 17:30N 34°36' E 135°21'4 8.8
2018-Jun-14 17:01N 34°36' E 135°16'714.2
2018-Jun-14 16:30N 34°35' E 135°07'815.0
2018-Jun-14 16:00N 34°37' E 134°59'714.1
2018-Jun-14 15:30N 34°34' E 134°51'612.8
2018-Jun-14 15:00N 34°31' E 134°44'713.6
2018-Jun-14 14:31N 34°29' E 134°36'713.5
2018-Jun-14 14:00N 34°26' E 134°29'713.7
2018-Jun-14 13:30N 34°24' E 134°21'  
Track history (hours):
 
Tides and Currents Weather Stations Pressure Air Temp Water Temp Dewpoint Dewpoint Depression Visibility Wind Speed Wind Dir Waves Ship Positions

Pegasus Prime

Last reported at 2018-Jun-23 19:51 UTC. Time now 2018-Jun-24 14:21 UTC.
Position N 35°03' E 129°09'.

Length 127 m; draft 7.6 m.

Type: Cargo ship. MMSI: 441568000.

Date/timePositionNaut miles runAvg speedWind from/ knotsBaromVisibWave heightAir tempDewpointWater temp
2018-Jun-23 19:51N 35°03' E 129°09'412.3
2018-Jun-23 19:30N 35°05' E 129°06'1 0.7
2018-Jun-23 18:10N 35°06' E 129°06'0 0.0
2018-Jun-23 17:22N 35°06' E 129°06'0 0.0
2018-Jun-23 16:43N 35°06' E 129°06'0 0.0
2018-Jun-23 16:28N 35°06' E 129°06'0 0.0
2018-Jun-23 15:49N 35°06' E 129°06'0 0.0
2018-Jun-23 15:28N 35°06' E 129°06'0 0.0
2018-Jun-23 14:58N 35°06' E 129°06'0 0.0
2018-Jun-23 14:28N 35°06' E 129°06'0 0.0
2018-Jun-23 13:58N 35°06' E 129°06'0 0.0
2018-Jun-23 13:28N 35°06' E 129°06'0 0.0
2018-Jun-23 12:52N 35°06' E 129°06'0 0.0
2018-Jun-23 12:28N 35°06' E 129°06'0 0.0
2018-Jun-23 11:58N 35°06' E 129°06'0 0.0
2018-Jun-23 11:16N 35°06' E 129°06'0 0.0
2018-Jun-23 10:58N 35°06' E 129°06'0 0.0
2018-Jun-23 10:28N 35°06' E 129°06'0 0.0
2018-Jun-23 09:58N 35°06' E 129°06'0 0.0
2018-Jun-23 09:22N 35°06' E 129°06'0 0.0
2018-Jun-23 08:49N 35°06' E 129°06'0 0.0
2018-Jun-23 08:19N 35°06' E 129°06'0 0.0
2018-Jun-23 07:58N 35°06' E 129°06'0 0.0
2018-Jun-23 07:22N 35°06' E 129°06'0 0.0
2018-Jun-23 03:37N 35°06' E 129°06'0 2.2
2018-Jun-23 03:30N 35°06' E 129°06'255 6.1
2018-Jun-21 09:52N 34°25' E 134°12'513.4
2018-Jun-21 09:29N 34°25' E 134°18'714.2
2018-Jun-21 09:00N 34°26' E 134°26'714.6
2018-Jun-21 08:30N 34°29' E 134°34'714.6
2018-Jun-21 08:00N 34°32' E 134°42'815.3
2018-Jun-21 07:30N 34°35' E 134°51'815.6
2018-Jun-21 07:00N 34°38' E 134°60'714.6
2018-Jun-21 06:30N 34°36' E 135°08'713.8
2018-Jun-21 06:00N 34°38' E 135°16'2 3.2
2018-Jun-21 05:19N 34°40' E 135°14'0 0.0
2018-Jun-21 04:49N 34°40' E 135°14'0 0.0
2018-Jun-21 04:28N 34°40' E 135°14'0 0.0
2018-Jun-21 03:58N 34°40' E 135°14'0 0.0
2018-Jun-21 03:25N 34°40' E 135°14'0 0.0
2018-Jun-21 02:58N 34°40' E 135°14'0 0.0
2018-Jun-21 02:28N 34°40' E 135°14'0 0.0
2018-Jun-21 01:55N 34°40' E 135°14'0 0.0
2018-Jun-21 01:25N 34°40' E 135°14'0 0.0
2018-Jun-21 00:52N 34°40' E 135°14'0 0.0
2018-Jun-21 00:28N 34°40' E 135°14'0 0.0
2018-Jun-20 23:58N 34°40' E 135°14'0 0.0
2018-Jun-20 23:28N 34°40' E 135°14'0 0.0
2018-Jun-20 22:55N 34°40' E 135°14'0 0.1
2018-Jun-20 22:30N 34°40' E 135°14'2 4.5
2018-Jun-20 22:00N 34°39' E 135°16'612.0
2018-Jun-20 21:30N 34°38' E 135°24'2 1.2
2018-Jun-20 19:31N 34°38' E 135°26'0 0.0
2018-Jun-20 19:13N 34°38' E 135°26'0 0.0
2018-Jun-20 15:19N 34°38' E 135°26'0 0.0
2018-Jun-20 14:55N 34°38' E 135°26'0 0.0
2018-Jun-20 14:25N 34°38' E 135°26'0 0.0
2018-Jun-20 13:55N 34°38' E 135°26'0 0.0
2018-Jun-20 13:25N 34°38' E 135°26'0 0.0
2018-Jun-20 12:19N 34°38' E 135°26'0 0.0
2018-Jun-20 11:31N 34°38' E 135°26'0 0.0
2018-Jun-20 10:25N 34°38' E 135°26'0 0.0
2018-Jun-20 09:43N 34°38' E 135°26'0 0.0
2018-Jun-20 09:25N 34°38' E 135°26'0 0.0
2018-Jun-20 08:55N 34°38' E 135°26'0 0.0
2018-Jun-20 08:25N 34°38' E 135°26'0 0.0
2018-Jun-20 07:43N 34°38' E 135°26'0 0.0
2018-Jun-20 07:13N 34°38' E 135°26'0 0.0
2018-Jun-20 06:55N 34°38' E 135°26'0 0.0
2018-Jun-20 06:27N 34°38' E 135°26'1 1.2
2018-Jun-20 06:00N 34°39' E 135°26'4 7.6
2018-Jun-20 05:31N 34°37' E 135°22'510.1
2018-Jun-20 05:01N 34°35' E 135°16'510.8
2018-Jun-20 04:30N 34°35' E 135°10'612.5
2018-Jun-20 04:00N 34°36' E 135°02'611.7
2018-Jun-20 03:30N 34°35' E 134°55'612.6
2018-Jun-20 03:00N 34°33' E 134°48'713.2
2018-Jun-20 02:30N 34°30' E 134°41'713.2
2018-Jun-20 02:00N 34°28' E 134°33'713.6
2018-Jun-20 01:29N 34°25' E 134°25'713.8
2018-Jun-20 01:00N 34°23' E 134°18'255 9.5
2018-Jun-18 22:16N 35°02' E 129°11'413.2
2018-Jun-18 21:59N 35°04' E 129°07'2 5.1
2018-Jun-18 21:30N 35°06' E 129°06'0 0.0
2018-Jun-18 21:00N 35°06' E 129°06'0 0.0
2018-Jun-18 20:30N 35°06' E 129°06'0 0.0
2018-Jun-18 19:54N 35°06' E 129°06'0 0.0
2018-Jun-18 19:30N 35°06' E 129°06'0 0.0
2018-Jun-18 19:00N 35°06' E 129°06'0 0.0
2018-Jun-18 18:30N 35°06' E 129°06'0 0.0
2018-Jun-18 17:51N 35°06' E 129°06'0 0.0
2018-Jun-18 17:30N 35°06' E 129°06'0 0.0
2018-Jun-18 17:00N 35°06' E 129°06'0 0.0
2018-Jun-18 16:30N 35°06' E 129°06'0 0.0
2018-Jun-18 15:57N 35°06' E 129°06'0 0.0
2018-Jun-18 15:30N 35°06' E 129°06'0 0.0
2018-Jun-18 14:57N 35°06' E 129°06'0 0.0
2018-Jun-18 14:30N 35°06' E 129°06'0 0.0
2018-Jun-18 13:57N 35°06' E 129°06'0 0.0
2018-Jun-18 13:30N 35°06' E 129°06'0 0.0
2018-Jun-18 13:00N 35°06' E 129°06'0 0.0
2018-Jun-18 12:30N 35°06' E 129°06'0 0.0
2018-Jun-18 11:57N 35°06' E 129°06'0 0.0
2018-Jun-18 11:24N 35°06' E 129°06'0 0.0
2018-Jun-18 10:54N 35°06' E 129°06'0 0.0
2018-Jun-18 10:30N 35°06' E 129°06'0 0.0
2018-Jun-18 09:00N 35°06' E 129°06'0 0.0
2018-Jun-18 08:12N 35°06' E 129°06'0 0.0
2018-Jun-18 07:54N 35°06' E 129°06'0 0.0
2018-Jun-18 07:30N 35°06' E 129°06'0 0.0
2018-Jun-18 07:00N 35°06' E 129°06'0 0.0
2018-Jun-18 06:12N 35°06' E 129°06'0 0.0
2018-Jun-18 06:00N 35°06' E 129°06'0 0.0
2018-Jun-18 05:24N 35°06' E 129°06'0 0.0
2018-Jun-18 04:57N 35°06' E 129°06'0 0.0
2018-Jun-18 04:30N 35°06' E 129°06'1 1.4
2018-Jun-18 04:01N 35°05' E 129°06'4 3.0
2018-Jun-18 02:39N 35°02' E 129°02'0 0.0
2018-Jun-18 02:23N 35°02' E 129°02'0 0.1
2018-Jun-18 01:59N 35°02' E 129°02'0 0.0
2018-Jun-18 01:26N 35°02' E 129°02'0 0.0
2018-Jun-17 22:41N 35°03' E 129°02'0 0.3
2018-Jun-17 22:30N 35°03' E 129°02'0 0.0
2018-Jun-17 22:00N 35°03' E 129°02'0 0.1
2018-Jun-17 21:29N 35°02' E 129°02'0 0.1
2018-Jun-17 21:00N 35°03' E 129°02'0 0.1
2018-Jun-17 20:23N 35°03' E 129°03'0 0.0
2018-Jun-17 19:59N 35°03' E 129°03'0 0.0
2018-Jun-17 19:30N 35°03' E 129°03'0 0.0
2018-Jun-17 19:00N 35°02' E 129°03'0 0.0
2018-Jun-17 18:25N 35°02' E 129°03'0 0.0
2018-Jun-17 17:51N 35°02' E 129°03'0 0.0
2018-Jun-17 17:30N 35°02' E 129°03'0 0.1
2018-Jun-17 16:58N 35°02' E 129°02'0 0.1
2018-Jun-17 16:30N 35°03' E 129°02'0 0.0
2018-Jun-17 16:00N 35°03' E 129°02'0 0.0
2018-Jun-17 15:30N 35°03' E 129°02'0 0.1
2018-Jun-17 14:56N 35°03' E 129°02'0 0.0
2018-Jun-17 14:22N 35°03' E 129°02'0 0.1
2018-Jun-17 13:52N 35°02' E 129°02'0 0.0
2018-Jun-17 13:30N 35°03' E 129°02'0 0.0
2018-Jun-17 13:00N 35°03' E 129°02'0 0.2
2018-Jun-17 12:18N 35°02' E 129°02'0 0.0
2018-Jun-17 10:05N 35°02' E 129°02'0 0.0
2018-Jun-17 08:41N 35°02' E 129°02'0 0.1
2018-Jun-17 07:31N 35°02' E 129°02'0 0.0
2018-Jun-17 07:30N 35°02' E 129°02'0 0.0
2018-Jun-17 07:00N 35°03' E 129°02'0 0.1
2018-Jun-17 06:29N 35°03' E 129°02'0 0.1
2018-Jun-17 05:58N 35°02' E 129°02'0 0.0
2018-Jun-17 05:16N 35°02' E 129°02'0 0.0
2018-Jun-17 04:27N 35°02' E 129°02'0 0.1
2018-Jun-17 03:53N 35°02' E 129°02'0 0.0
2018-Jun-17 02:45N 35°02' E 129°02'0 0.0
2018-Jun-17 02:28N 35°02' E 129°02'0 0.1
2018-Jun-17 01:53N 35°02' E 129°02'0 0.0
2018-Jun-17 01:29N 35°02' E 129°02'0 0.0
2018-Jun-17 00:54N 35°02' E 129°02'0 0.0
2018-Jun-17 00:29N 35°02' E 129°02'0 0.0
2018-Jun-16 23:57N 35°02' E 129°02'0 0.0
2018-Jun-16 23:30N 35°02' E 129°02'0 0.0
2018-Jun-16 23:00N 35°02' E 129°02'0 0.0
2018-Jun-16 22:30N 35°02' E 129°02'0 0.0
2018-Jun-16 22:00N 35°02' E 129°02'0 0.0
2018-Jun-16 21:30N 35°02' E 129°02'0 0.0
2018-Jun-16 20:58N 35°02' E 129°02'0 0.1
2018-Jun-16 20:29N 35°02' E 129°02'0 0.1
2018-Jun-16 19:58N 35°02' E 129°02'0 0.0
2018-Jun-16 19:30N 35°02' E 129°02'0 0.0
2018-Jun-16 19:00N 35°02' E 129°02'0 0.0
2018-Jun-16 18:30N 35°02' E 129°02'0 0.0
2018-Jun-16 18:00N 35°02' E 129°02'0 0.0
2018-Jun-16 17:30N 35°02' E 129°02'25611.3
2018-Jun-15 18:57N 34°26' E 134°10'612.5
2018-Jun-15 18:28N 34°24' E 134°17'713.9
2018-Jun-15 17:59N 34°26' E 134°25'714.6
2018-Jun-15 17:31N 34°29' E 134°33'714.5
2018-Jun-15 17:00N 34°31' E 134°41'715.1
2018-Jun-15 16:31N 34°34' E 134°50'714.7
2018-Jun-15 16:00N 34°37' E 134°58'713.8
2018-Jun-15 15:31N 34°36' E 135°06'714.5
2018-Jun-15 15:01N 34°37' E 135°15'3 5.2
2018-Jun-15 14:31N 34°40' E 135°14'0 0.2
2018-Jun-15 13:58N 34°40' E 135°14'0 0.0
2018-Jun-15 13:25N 34°40' E 135°14'0 0.0
2018-Jun-15 12:58N 34°40' E 135°14'0 0.0
2018-Jun-15 12:25N 34°40' E 135°14'0 0.0
2018-Jun-15 11:55N 34°40' E 135°14'0 0.0
2018-Jun-15 11:28N 34°40' E 135°14'0 0.0
2018-Jun-15 10:55N 34°40' E 135°14'0 0.0
2018-Jun-15 10:25N 34°40' E 135°14'0 0.0
2018-Jun-15 09:55N 34°40' E 135°14'0 0.0
2018-Jun-15 09:25N 34°40' E 135°14'0 0.0
2018-Jun-15 08:58N 34°40' E 135°14'0 0.0
2018-Jun-15 08:25N 34°40' E 135°14'0 0.0
2018-Jun-15 07:49N 34°40' E 135°14'0 0.0
2018-Jun-15 07:25N 34°40' E 135°14'0 0.0
2018-Jun-15 06:55N 34°40' E 135°14'0 0.0
2018-Jun-15 06:25N 34°40' E 135°14'0 0.1
2018-Jun-15 06:00N 34°40' E 135°14'3 5.8
2018-Jun-15 05:30N 34°38' E 135°17'713.1
2018-Jun-15 05:00N 34°39' E 135°25'1 2.6
2018-Jun-15 04:30N 34°38' E 135°26'0 0.0
2018-Jun-15 03:42N 34°38' E 135°26'0 0.0
2018-Jun-15 03:30N 34°38' E 135°26'0 0.0
2018-Jun-15 03:00N 34°38' E 135°26'0 0.0
2018-Jun-15 02:30N 34°38' E 135°26'0 0.0
2018-Jun-15 02:00N 34°38' E 135°26'0 0.0
2018-Jun-15 01:30N 34°38' E 135°26'0 0.0
2018-Jun-15 00:48N 34°38' E 135°26'0 0.0
2018-Jun-15 00:30N 34°38' E 135°26'0 0.0
2018-Jun-15 00:00N 34°38' E 135°26'0 0.0
2018-Jun-14 23:30N 34°38' E 135°26'0 0.0
2018-Jun-14 23:00N 34°38' E 135°26'0 0.0
2018-Jun-14 22:30N 34°38' E 135°26'2 4.3
2018-Jun-14 22:00N 34°38' E 135°24'2 4.5
2018-Jun-14 21:30N 34°37' E 135°22'0 0.0
2018-Jun-14 21:00N 34°37' E 135°22'0 0.0
2018-Jun-14 20:30N 34°37' E 135°22'0 0.0
2018-Jun-14 20:00N 34°37' E 135°22'0 0.0
2018-Jun-14 19:29N 34°37' E 135°22'0 0.0
2018-Jun-14 19:00N 34°37' E 135°22'0 0.0
2018-Jun-14 18:30N 34°37' E 135°22'0 0.1
2018-Jun-14 18:00N 34°37' E 135°22'1 1.4
2018-Jun-14 17:30N 34°36' E 135°21'4 8.8
2018-Jun-14 17:01N 34°36' E 135°16'714.2
2018-Jun-14 16:30N 34°35' E 135°07'815.0
2018-Jun-14 16:00N 34°37' E 134°59'714.1
2018-Jun-14 15:30N 34°34' E 134°51'612.8
2018-Jun-14 15:00N 34°31' E 134°44'713.6
2018-Jun-14 14:31N 34°29' E 134°36'713.5
2018-Jun-14 14:00N 34°26' E 134°29'713.7
2018-Jun-14 13:30N 34°24' E 134°21'  

Dump ship's entire track history